Time;durP1;ratioP1;P1;durP2;ratioP2;P2;SDS_P1;SDS_P2;PMS_P1;PMS_P2;Temp;Humidity;BMP_temperature;BMP_pressure;BME280_temperature;BME280_humidity;BME280_pressure;Samples;Min_cycle;Max_cycle;Signal;HPM_P1;HPM_P2
2023/07/16 00:01:25;;;;;;;4.40;4.00;;;;;;;22.52;90.53;99980.19;4862931;29;20072;-80
2023/07/16 00:03:51;;;;;;;4.72;4.32;;;;;;;22.41;90.96;99983.75;4860006;29;20049;-81
2023/07/16 00:06:18;;;;;;;4.75;4.28;;;;;;;22.39;91.25;99988.41;4873418;29;20037;-79
2023/07/16 00:08:45;;;;;;;4.75;4.18;;;;;;;22.31;90.38;99989.00;4860541;29;20065;-81
2023/07/16 00:11:11;;;;;;;4.70;4.28;;;;;;;22.19;91.03;99979.19;4870396;29;20048;-81
2023/07/16 00:13:38;;;;;;;4.40;4.00;;;;;;;22.12;91.08;99978.88;4870918;29;20105;-81
2023/07/16 00:16:05;;;;;;;4.47;4.07;;;;;;;22.09;90.58;99978.22;4879908;29;20108;-82
2023/07/16 00:18:32;;;;;;;4.72;4.15;;;;;;;22.19;90.59;99974.69;4867806;29;20063;-81
2023/07/16 00:20:59;;;;;;;4.82;3.97;;;;;;;21.99;92.60;99967.31;4865643;29;20334;-81
2023/07/16 00:23:25;;;;;;;5.18;4.32;;;;;;;21.95;93.55;99971.22;4862498;29;20135;-79
2023/07/16 00:25:52;;;;;;;4.80;4.40;;;;;;;22.01;93.60;99977.94;4873569;29;20049;-82
2023/07/16 00:28:19;;;;;;;5.63;4.57;;;;;;;21.86;95.63;99986.25;4882285;29;20564;-80
2023/07/16 00:30:45;;;;;;;4.82;4.30;;;;;;;21.81;96.34;99991.13;4875532;29;20044;-80
2023/07/16 00:33:12;;;;;;;4.90;4.45;;;;;;;21.83;94.55;99983.78;4873269;29;20044;-82
2023/07/16 00:35:39;;;;;;;4.43;4.05;;;;;;;21.81;93.79;99977.69;4892794;29;20045;-80
2023/07/16 00:38:05;;;;;;;5.47;4.40;;;;;;;21.81;92.70;99975.00;4881149;29;20053;-80
2023/07/16 00:40:32;;;;;;;4.80;4.30;;;;;;;21.71;93.40;99968.63;4880750;29;20041;-81
2023/07/16 00:42:59;;;;;;;4.65;4.25;;;;;;;21.64;93.89;99962.84;4863129;29;20132;-81
2023/07/16 00:45:26;;;;;;;6.68;4.15;;;;;;;21.64;93.17;99951.25;4886614;29;20044;-80
2023/07/16 00:47:52;;;;;;;4.75;4.10;;;;;;;21.58;92.86;99959.78;4873276;29;20041;-81
2023/07/16 00:50:19;;;;;;;4.55;4.15;;;;;;;21.60;91.55;99968.56;4872643;29;20049;-82
2023/07/16 00:52:46;;;;;;;5.20;4.55;;;;;;;21.41;93.38;99984.41;4843371;29;20100;-81
2023/07/16 00:55:13;;;;;;;5.00;4.50;;;;;;;21.30;95.78;99998.66;4854775;29;20045;-80
2023/07/16 00:57:40;;;;;;;5.13;4.57;;;;;;;21.23;97.34;99998.22;4873436;29;20073;-79
2023/07/16 01:00:07;;;;;;;5.30;4.28;;;;;;;21.24;96.65;99997.25;4879035;29;20468;-81
2023/07/16 01:02:34;;;;;;;4.93;4.40;;;;;;;21.26;96.77;100000.69;4868812;29;20049;-81
2023/07/16 01:05:01;;;;;;;4.95;4.15;;;;;;;21.25;97.05;100004.34;4884073;29;20045;-81
2023/07/16 01:07:30;;;;;;;5.30;4.80;;;;;;;21.31;96.39;100014.66;4875317;29;20061;-81
2023/07/16 01:09:57;;;;;;;4.70;4.30;;;;;;;21.29;97.36;100024.69;4861614;29;20041;-81
2023/07/16 01:12:26;;;;;;;5.10;4.18;;;;;;;21.23;98.80;100026.94;4857624;29;20051;-80
2023/07/16 01:14:54;;;;;;;4.70;4.30;;;;;;;21.20;99.42;100046.84;4886778;29;20055;-81
2023/07/16 01:17:20;;;;;;;5.30;4.80;;;;;;;21.19;99.78;100061.25;4861224;29;20056;-81
2023/07/16 01:19:47;;;;;;;5.32;4.82;;;;;;;21.14;100.00;100071.44;4863372;29;20048;-81
2023/07/16 01:22:36;;;;;;;4.90;4.40;;;;;;;21.14;100.00;100076.81;4851060;29;20085;-79
2023/07/16 01:25:34;;;;;;;4.72;4.15;;;;;;;21.14;100.00;100076.81;4879377;29;20682;-79
2023/07/16 01:28:20;;;;;;;5.38;4.85;;;;;;;21.14;100.00;100111.75;4869398;29;20061;-79
2023/07/16 01:30:47;;;;;;;5.32;4.82;;;;;;;21.11;100.00;100138.84;4857833;29;20045;-81
2023/07/16 01:33:16;;;;;;;7.43;4.70;;;;;;;21.21;97.85;100147.09;4878173;29;20049;-83
2023/07/16 01:35:44;;;;;;;5.38;4.53;;;;;;;21.30;95.67;100167.94;4878936;29;20040;-82
2023/07/16 01:38:11;;;;;;;5.80;5.03;;;;;;;21.28;95.31;100176.13;4866077;29;20033;-79
2023/07/16 01:40:37;;;;;;;6.07;5.00;;;;;;;21.32;95.56;100176.75;4879326;29;20076;-81
2023/07/16 01:43:04;;;;;;;5.07;4.20;;;;;;;21.34;95.55;100191.78;4873112;29;20045;-82
2023/07/16 01:45:31;;;;;;;5.50;4.88;;;;;;;21.39;95.32;100218.31;4852119;29;20148;-84
2023/07/16 01:48:23;;;;;;;5.50;4.65;;;;;;;21.63;94.34;100229.97;4854142;29;20117;-83
2023/07/16 01:50:50;;;;;;;7.75;4.40;;;;;;;21.65;92.61;100219.09;4882239;29;20053;-81
2023/07/16 01:53:17;;;;;;;5.05;3.90;;;;;;;21.70;91.70;100216.94;4881019;29;20043;-82
2023/07/16 01:55:43;;;;;;;4.38;3.95;;;;;;;21.80;92.39;100225.19;4883239;29;20487;-82
2023/07/16 01:58:10;;;;;;;5.13;3.85;;;;;;;21.87;91.48;100231.84;4883558;29;20117;-84
2023/07/16 02:00:37;;;;;;;4.80;4.30;;;;;;;21.93;90.31;100247.50;4881941;29;20323;-81
2023/07/16 02:03:04;;;;;;;4.18;3.78;;;;;;;21.98;90.08;100253.41;4877504;29;20136;-83
2023/07/16 02:05:31;;;;;;;5.47;3.63;;;;;;;22.11;88.31;100250.69;4862358;29;20045;-82
2023/07/16 02:07:57;;;;;;;5.60;3.58;;;;;;;22.17;89.09;100264.53;4867689;29;20433;-81
2023/07/16 02:10:25;;;;;;;4.47;4.07;;;;;;;22.17;88.91;100269.06;4872591;29;20569;-82
2023/07/16 02:12:53;;;;;;;5.55;3.75;;;;;;;22.27;87.62;100272.78;4892450;29;20232;-83
2023/07/16 02:15:21;;;;;;;4.28;3.88;;;;;;;22.39;87.58;100273.69;4865207;29;20075;-81
2023/07/16 02:17:48;;;;;;;4.18;3.58;;;;;;;22.43;87.03;100272.47;4879611;29;20085;-81
2023/07/16 02:20:15;;;;;;;4.78;3.28;;;;;;;22.44;86.67;100277.75;4895489;29;20045;-80
2023/07/16 02:22:42;;;;;;;6.05;3.42;;;;;;;22.44;87.39;100280.44;4863134;29;20041;-81
2023/07/16 02:25:09;;;;;;;3.90;3.45;;;;;;;22.58;86.43;100292.00;4849838;29;20045;-81
2023/07/16 02:27:36;;;;;;;3.72;3.10;;;;;;;22.55;87.19;100294.94;4870312;29;20044;-81
2023/07/16 02:30:03;;;;;;;3.42;3.13;;;;;;;22.54;87.08;100291.38;4867532;29;20076;-82
2023/07/16 02:32:30;;;;;;;5.47;3.20;;;;;;;22.65;87.09;100293.25;4877100;29;20050;-81
2023/07/16 02:34:57;;;;;;;4.05;3.60;;;;;;;22.60;87.89;100295.41;4863949;29;20073;-82
2023/07/16 02:37:24;;;;;;;3.92;3.53;;;;;;;22.60;88.41;100293.59;4897336;29;20114;-80
2023/07/16 02:39:51;;;;;;;5.00;3.45;;;;;;;22.60;88.62;100290.03;4847412;29;20097;-82
2023/07/16 02:42:18;;;;;;;3.38;3.00;;;;;;;22.51;89.25;100290.75;4873309;29;20053;-82
2023/07/16 02:44:45;;;;;;;3.78;3.47;;;;;;;22.47;90.49;100287.44;4863945;29;20041;-83
2023/07/16 02:47:12;;;;;;;6.22;3.70;;;;;;;22.44;91.08;100284.97;4878227;29;20482;-81
2023/07/16 02:49:39;;;;;;;4.75;3.65;;;;;;;22.37;91.73;100284.59;4875788;29;20085;-80
2023/07/16 02:52:06;;;;;;;5.43;3.65;;;;;;;22.51;91.03;100298.81;4858128;29;20659;-81
2023/07/16 02:54:35;;;;;;;4.30;3.17;;;;;;;22.41;91.65;100299.50;4873566;29;20104;-81
2023/07/16 02:57:02;;;;;;;5.28;3.38;;;;;;;22.41;92.72;100307.59;4870703;29;20572;-80
2023/07/16 02:59:29;;;;;;;3.95;3.20;;;;;;;22.45;93.87;100308.22;4863368;29;20064;-81
2023/07/16 03:01:56;;;;;;;3.90;3.60;;;;;;;22.41;95.72;100280.66;5071578;23;20105;-81
2023/07/16 03:04:23;;;;;;;5.20;3.33;;;;;;;22.21;98.21;100257.13;4913720;23;20036;-81
2023/07/16 03:06:49;;;;;;;4.95;3.70;;;;;;;22.19;100.00;100259.03;4901355;23;20121;-81
2023/07/16 03:09:16;;;;;;;4.88;3.60;;;;;;;22.02;100.00;100267.47;4896312;29;20064;-82
2023/07/16 03:11:43;;;;;;;5.28;3.90;;;;;;;21.89;100.00;100276.47;4857453;29;20065;-84
2023/07/16 03:14:10;;;;;;;5.50;4.40;;;;;;;21.67;100.00;100270.06;4879971;29;20106;-84
2023/07/16 03:16:37;;;;;;;3.83;3.33;;;;;;;21.54;100.00;100278.19;4848483;29;20049;-83
2023/07/16 03:19:04;;;;;;;5.60;4.30;;;;;;;21.46;100.00;100264.44;4848985;29;20071;-83
2023/07/16 03:21:31;;;;;;;4.85;4.10;;;;;;;21.16;100.00;100254.00;4864965;29;20126;-83
2023/07/16 03:23:58;;;;;;;4.30;3.33;;;;;;;21.18;100.00;100263.66;4854585;29;20547;-84
2023/07/16 03:26:25;;;;;;;4.80;4.32;;;;;;;21.16;100.00;100268.28;4873123;29;20069;-82
2023/07/16 03:28:52;;;;;;;4.38;3.97;;;;;;;21.08;100.00;100254.53;4838303;29;20092;-81
2023/07/16 03:31:19;;;;;;;4.82;4.05;;;;;;;20.98;100.00;100243.59;4853194;29;20055;-86
2023/07/16 03:33:46;;;;;;;4.72;4.22;;;;;;;21.04;100.00;100255.75;4863267;29;20045;-83
2023/07/16 03:36:13;;;;;;;3.95;3.65;;;;;;;20.97;100.00;100254.44;4852701;29;20218;-84
2023/07/16 03:38:40;;;;;;;4.70;4.13;;;;;;;20.92;100.00;100249.38;4842558;29;20308;-82
2023/07/16 03:41:07;;;;;;;5.57;4.20;;;;;;;20.87;100.00;100231.91;4851742;29;20441;-82
2023/07/16 03:43:34;;;;;;;7.38;5.03;;;;;;;20.82;100.00;100237.56;4868124;29;20050;-81
2023/07/16 03:46:07;;;;;;;5.32;4.82;;;;;;;20.78;100.00;100242.31;4893515;29;20045;-86
2023/07/16 03:48:38;;;;;;;6.18;4.40;;;;;;;20.70;100.00;100239.28;4853057;29;20113;-82
2023/07/16 03:51:08;;;;;;;5.68;4.93;;;;;;;20.71;100.00;100234.78;4834262;29;20100;-84
2023/07/16 03:53:35;;;;;;;7.15;4.65;;;;;;;20.72;100.00;100223.06;4873998;29;20049;-82
2023/07/16 03:56:02;;;;;;;5.53;4.28;;;;;;;20.78;100.00;100222.66;4876332;29;20053;-84
2023/07/16 03:58:29;;;;;;;4.97;4.32;;;;;;;20.73;100.00;100214.91;4878050;29;20077;-84
2023/07/16 04:00:56;;;;;;;4.75;4.07;;;;;;;20.59;100.00;100181.94;4869656;29;20048;-84
2023/07/16 04:03:26;;;;;;;4.80;4.10;;;;;;;20.53;100.00;100210.06;4876337;29;20190;-81
2023/07/16 04:06:01;;;;;;;6.38;4.93;;;;;;;20.63;100.00;100253.25;4878244;29;20423;-82
2023/07/16 04:08:28;;;;;;;5.40;4.82;;;;;;;20.83;100.00;100293.00;4874492;29;20049;-84
2023/07/16 04:10:54;;;;;;;4.88;4.47;;;;;;;20.73;100.00;100308.88;4868824;29;20076;-81
2023/07/16 04:13:23;;;;;;;6.25;4.70;;;;;;;20.74;100.00;100299.84;4854400;29;20046;-81
2023/07/16 04:15:49;;;;;;;6.60;4.65;;;;;;;20.72;100.00;100269.56;4864175;29;20045;-80
2023/07/16 04:18:16;;;;;;;6.47;5.03;;;;;;;20.75;100.00;100284.59;4878762;29;20044;-82
2023/07/16 04:20:43;;;;;;;5.70;5.10;;;;;;;20.72;100.00;100303.63;4888496;29;20044;-80
2023/07/16 04:23:10;;;;;;;5.38;4.53;;;;;;;20.67;100.00;100289.63;4905474;29;20112;-82
2023/07/16 04:25:40;;;;;;;6.28;4.60;;;;;;;20.62;100.00;100263.13;4863538;29;20029;-83
2023/07/16 04:28:11;;;;;;;6.63;5.13;;;;;;;20.62;100.00;100279.22;4868385;29;20041;-84
2023/07/16 04:30:41;;;;;;;6.00;4.50;;;;;;;20.62;100.00;100276.53;4859041;29;20046;-85
2023/07/16 04:33:09;;;;;;;4.95;4.45;;;;;;;20.59;100.00;100290.16;4860424;29;20057;-85
2023/07/16 04:35:36;;;;;;;6.25;5.05;;;;;;;20.58;100.00;100285.75;4872666;29;20259;-84
2023/07/16 04:38:02;;;;;;;5.35;4.60;;;;;;;20.66;100.00;100294.13;4856244;29;20075;-83
2023/07/16 04:40:30;;;;;;;5.40;4.57;;;;;;;20.76;100.00;100305.97;4870378;29;20383;-83
2023/07/16 04:42:57;;;;;;;5.43;4.82;;;;;;;20.49;100.00;100240.75;4878589;29;20040;-82
2023/07/16 04:45:24;;;;;;;6.20;4.75;;;;;;;20.43;100.00;100225.97;4871947;29;20509;-83
2023/07/16 04:47:51;;;;;;;5.93;4.80;;;;;;;20.50;100.00;100250.53;4895271;29;20053;-83
2023/07/16 04:50:18;;;;;;;5.82;4.90;;;;;;;20.53;100.00;100255.69;4854124;29;20053;-81
2023/07/16 04:52:45;;;;;;;5.32;4.50;;;;;;;20.54;100.00;100269.97;4887139;29;20048;-80
2023/07/16 04:55:13;;;;;;;6.45;4.68;;;;;;;20.56;100.00;100287.69;4863115;29;20084;-84
2023/07/16 04:57:40;;;;;;;5.78;5.05;;;;;;;20.52;100.00;100305.84;4842825;29;20056;-82
2023/07/16 05:00:08;;;;;;;7.85;5.07;;;;;;;20.50;100.00;100320.28;4868596;29;20050;-84
2023/07/16 05:02:34;;;;;;;5.50;5.00;;;;;;;20.54;100.00;100348.66;4871727;29;20040;-80
2023/07/16 05:05:02;;;;;;;5.78;4.45;;;;;;;20.57;100.00;100328.81;4877819;29;20046;-81
2023/07/16 05:07:29;;;;;;;6.35;5.10;;;;;;;20.54;100.00;100347.81;4872574;29;20507;-82
2023/07/16 05:09:56;;;;;;;5.53;4.82;;;;;;;20.63;100.00;100340.00;4859954;29;20065;-81
2023/07/16 05:12:23;;;;;;;6.57;5.07;;;;;;;20.61;100.00;100331.19;4881624;29;20049;-83
2023/07/16 05:14:51;;;;;;;5.90;4.75;;;;;;;20.70;100.00;100349.34;4858884;29;20063;-85
2023/07/16 05:17:18;;;;;;;5.63;4.78;;;;;;;20.73;100.00;100345.59;4867896;29;20065;-83
2023/07/16 05:19:46;;;;;;;4.57;4.18;;;;;;;20.80;100.00;100354.97;4874515;29;20049;-82
2023/07/16 05:22:13;;;;;;;5.82;5.05;;;;;;;20.81;100.00;100367.41;4861852;29;20720;-83
2023/07/16 05:24:41;;;;;;;5.70;4.75;;;;;;;20.92;100.00;100382.78;4856235;29;20442;-83
2023/07/16 05:27:11;;;;;;;5.90;5.30;;;;;;;21.02;100.00;100379.41;4865870;29;20037;-83
2023/07/16 05:29:39;;;;;;;5.80;4.93;;;;;;;21.18;100.00;100376.50;4852476;29;20049;-83
2023/07/16 05:32:07;;;;;;;5.75;4.30;;;;;;;21.25;100.00;100379.63;4869136;29;20049;-85
2023/07/16 05:34:37;;;;;;;5.63;4.80;;;;;;;21.39;100.00;100398.38;4857303;29;20076;-84
2023/07/16 05:37:07;;;;;;;4.80;4.30;;;;;;;21.37;100.00;100404.84;4889193;29;20038;-83
2023/07/16 05:39:34;;;;;;;5.15;4.43;;;;;;;21.37;100.00;100402.16;4863798;29;20052;-82
2023/07/16 05:42:04;;;;;;;6.00;4.45;;;;;;;21.33;100.00;100405.03;4868811;29;20042;-85
2023/07/16 05:44:31;;;;;;;5.55;4.75;;;;;;;21.33;100.00;100399.66;4899921;29;20034;-81
2023/07/16 05:46:58;;;;;;;6.20;4.57;;;;;;;21.38;100.00;100403.88;4853367;29;20525;-84
2023/07/16 05:49:26;;;;;;;5.43;4.85;;;;;;;21.45;100.00;100410.53;4878454;29;20072;-83
2023/07/16 05:51:54;;;;;;;4.82;4.32;;;;;;;21.49;100.00;100410.22;4882137;29;20089;-83
2023/07/16 05:54:21;;;;;;;5.75;4.95;;;;;;;21.67;100.00;100412.56;4861337;29;20127;-81
2023/07/16 05:56:48;;;;;;;6.75;4.75;;;;;;;21.66;100.00;100418.91;4851144;29;20038;-82
2023/07/16 05:59:15;;;;;;;4.68;3.80;;;;;;;21.79;100.00;100420.66;4873242;29;20046;-82
2023/07/16 06:01:42;;;;;;;5.15;4.65;;;;;;;21.75;100.00;100420.94;4861273;29;20053;-82
2023/07/16 06:04:09;;;;;;;5.38;4.22;;;;;;;21.70;100.00;100409.69;4885793;29;20049;-81
2023/07/16 06:06:36;;;;;;;6.18;4.80;;;;;;;21.89;100.00;100415.47;4870901;29;20068;-84
2023/07/16 06:09:03;;;;;;;6.38;4.15;;;;;;;22.25;100.00;100414.66;4877361;29;20056;-83
2023/07/16 06:11:30;;;;;;;4.88;4.38;;;;;;;22.75;100.00;100416.31;4852991;29;20069;-85
2023/07/16 06:13:56;;;;;;;4.53;3.80;;;;;;;23.67;100.00;100421.91;4855341;29;20061;-80
2023/07/16 06:16:23;;;;;;;5.03;3.80;;;;;;;24.14;97.65;100416.28;4869835;29;20046;-80
2023/07/16 06:18:50;;;;;;;4.00;3.60;;;;;;;24.80;96.53;100412.69;4852718;29;20045;-82
2023/07/16 06:21:17;;;;;;;5.38;4.20;;;;;;;24.89;92.17;100407.41;4847398;29;20076;-81
2023/07/16 06:23:44;;;;;;;5.18;3.95;;;;;;;25.05;90.12;100419.63;4861331;29;20052;-82
2023/07/16 06:26:11;;;;;;;4.15;3.63;;;;;;;25.31;87.75;100420.13;4875938;29;20132;-80
2023/07/16 06:28:38;;;;;;;3.75;3.45;;;;;;;25.53;86.89;100419.97;4852293;29;20040;-83
2023/07/16 06:31:05;;;;;;;3.85;3.53;;;;;;;25.85;85.50;100417.22;4860737;29;20056;-79
2023/07/16 06:33:33;;;;;;;3.63;3.08;;;;;;;26.04;81.88;100403.75;4851749;29;20048;-80
2023/07/16 06:36:01;;;;;;;4.07;3.45;;;;;;;26.03;80.92;100403.88;4876737;29;20054;-84
2023/07/16 06:38:29;;;;;;;3.95;3.47;;;;;;;25.76;78.59;100413.47;4872040;29;20063;-83
2023/07/16 06:40:56;;;;;;;4.30;3.58;;;;;;;25.60;82.11;100421.16;4886419;29;20421;-81
2023/07/16 06:43:23;;;;;;;4.97;3.63;;;;;;;25.34;82.88;100417.16;4879080;29;20061;-82
2023/07/16 06:45:50;;;;;;;4.38;3.28;;;;;;;25.05;85.93;100422.34;4841368;29;20052;-78
2023/07/16 06:48:18;;;;;;;3.95;3.50;;;;;;;24.69;89.05;100409.06;4852151;29;20046;-81
2023/07/16 06:50:44;;;;;;;6.32;3.72;;;;;;;24.45;90.39;100427.28;4841870;29;20042;-80
2023/07/16 06:53:11;;;;;;;3.92;3.53;;;;;;;24.23;92.25;100428.19;4863512;29;20741;-80
2023/07/16 06:55:38;;;;;;;4.22;3.83;;;;;;;24.05;94.21;100424.28;4852662;29;20049;-80
2023/07/16 06:58:05;;;;;;;4.15;3.63;;;;;;;23.90;95.96;100429.03;4864503;29;20052;-81
2023/07/16 07:00:32;;;;;;;4.53;3.88;;;;;;;23.81;96.95;100424.38;4851461;29;20041;-81
2023/07/16 07:02:59;;;;;;;5.35;3.85;;;;;;;23.71;100.00;100421.56;4874848;29;20044;-82
2023/07/16 07:05:26;;;;;;;4.28;3.88;;;;;;;23.92;99.06;100424.38;4852213;29;20049;-83
2023/07/16 07:07:53;;;;;;;4.30;3.90;;;;;;;24.35;96.38;100429.03;4860837;29;20133;-81
2023/07/16 07:10:20;;;;;;;5.00;3.85;;;;;;;24.80;93.28;100431.63;4857982;29;20041;-83
2023/07/16 07:12:47;;;;;;;4.78;4.28;;;;;;;24.80;87.99;100435.19;4847277;29;20133;-81
2023/07/16 07:15:14;;;;;;;5.25;4.75;;;;;;;24.51;90.27;100448.41;4862982;29;20046;-80
2023/07/16 07:17:42;;;;;;;5.05;4.18;;;;;;;24.39;90.14;100450.28;4866231;29;20041;-81
2023/07/16 07:20:09;;;;;;;4.78;4.00;;;;;;;24.21;92.34;100459.81;4864247;29;20053;-78
2023/07/16 07:22:36;;;;;;;4.03;3.55;;;;;;;24.19;91.62;100456.38;4865539;29;20052;-82
2023/07/16 07:25:04;;;;;;;4.20;3.67;;;;;;;24.14;92.19;100461.31;4859843;29;20101;-79
2023/07/16 07:27:31;;;;;;;3.92;3.60;;;;;;;24.02;87.97;100463.13;4847932;29;20050;-80
2023/07/16 07:29:58;;;;;;;3.70;3.33;;;;;;;23.92;80.99;100470.25;4870798;29;20045;-82
2023/07/16 07:32:25;;;;;;;4.20;2.75;;;;;;;24.20;81.82;100460.78;4871784;29;20417;-82
2023/07/16 07:34:51;;;;;;;3.33;2.92;;;;;;;24.68;79.63;100455.13;4842828;29;20076;-80
2023/07/16 07:37:18;;;;;;;3.50;2.90;;;;;;;25.16;75.64;100458.31;4854684;29;20093;-82
2023/07/16 07:39:47;;;;;;;3.50;2.70;;;;;;;25.57;70.09;100461.19;4865945;29;20044;-81
2023/07/16 07:42:14;;;;;;;2.85;2.47;;;;;;;25.63;64.51;100453.34;4847558;29;20090;-82
2023/07/16 07:44:41;;;;;;;4.38;2.75;;;;;;;26.16;66.46;100469.50;4863610;29;20506;-81
2023/07/16 07:47:08;;;;;;;3.20;2.55;;;;;;;26.45;63.17;100468.78;4856712;29;20090;-81
2023/07/16 07:49:35;;;;;;;4.15;2.83;;;;;;;26.76;61.21;100470.41;4880677;29;20161;-82
2023/07/16 07:52:02;;;;;;;3.38;2.38;;;;;;;27.05;56.61;100462.34;4881217;29;20080;-80
2023/07/16 07:54:31;;;;;;;15.05;3.60;;;;;;;27.35;59.14;100474.06;4866368;29;20091;-82
2023/07/16 07:57:01;;;;;;;3.28;2.60;;;;;;;27.60;56.33;100456.31;4865149;29;20128;-82
2023/07/16 07:59:31;;;;;;;5.20;3.20;;;;;;;27.67;56.83;100473.75;4845101;29;20128;-81
2023/07/16 08:01:58;;;;;;;3.47;2.50;;;;;;;27.66;55.41;100482.84;4840031;29;20050;-81
2023/07/16 08:04:25;;;;;;;3.72;2.80;;;;;;;27.61;55.99;100474.31;4840453;29;20110;-82
2023/07/16 08:06:53;;;;;;;3.80;3.33;;;;;;;27.29;55.31;100482.75;4867518;29;20093;-81
2023/07/16 08:09:20;;;;;;;3.08;2.65;;;;;;;27.70;55.66;100485.16;4860802;29;20046;-82
2023/07/16 08:11:47;;;;;;;3.28;2.72;;;;;;;27.86;54.76;100484.56;4856424;29;20049;-82
2023/07/16 08:14:14;;;;;;;34.85;5.63;;;;;;;28.08;54.28;100486.06;4860643;29;20042;-82
2023/07/16 08:16:40;;;;;;;3.13;2.70;;;;;;;28.29;53.77;100483.16;4830688;29;20096;-83
2023/07/16 08:19:08;;;;;;;3.00;2.65;;;;;;;28.44;51.80;100478.09;4889290;29;20142;-83
2023/07/16 08:21:35;;;;;;;2.83;2.33;;;;;;;28.55;52.74;100492.31;4868255;29;20055;-82
2023/07/16 08:24:02;;;;;;;4.90;2.55;;;;;;;28.08;51.49;100496.91;4853999;29;20045;-83
2023/07/16 08:26:29;;;;;;;3.10;2.67;;;;;;;27.91;52.67;100492.25;4863675;29;20037;-82
2023/07/16 08:28:56;;;;;;;7.82;2.70;;;;;;;27.85;51.99;100496.44;4844073;29;20065;-80
2023/07/16 08:31:23;;;;;;;2.95;2.67;;;;;;;27.86;52.95;100498.16;4860666;29;20052;-80
2023/07/16 08:33:50;;;;;;;3.53;2.70;;;;;;;28.14;52.95;100504.47;4869694;29;20507;-81
2023/07/16 08:36:17;;;;;;;3.25;2.83;;;;;;;28.34;49.09;100501.75;4863228;29;20061;-82
2023/07/16 08:38:44;;;;;;;3.72;2.60;;;;;;;28.58;48.32;100502.03;4844129;29;20137;-81
2023/07/16 08:41:11;;;;;;;3.85;2.60;;;;;;;28.44;47.90;100500.69;4843136;29;20061;-83
2023/07/16 08:43:39;;;;;;;3.55;2.50;;;;;;;28.42;47.31;100507.25;4823199;29;20054;-82
2023/07/16 08:46:06;;;;;;;2.80;2.40;;;;;;;28.30;46.70;100504.75;4843981;29;20145;-84
2023/07/16 08:48:33;;;;;;;3.92;2.70;;;;;;;27.90;48.37;100506.84;4859652;29;20034;-81
2023/07/16 08:51:02;;;;;;;3.20;2.60;;;;;;;27.49;48.86;100504.31;4858748;29;20045;-83
2023/07/16 08:53:30;;;;;;;3.42;2.50;;;;;;;27.57;48.94;100509.00;4850273;29;20041;-82
2023/07/16 08:55:57;;;;;;;5.32;2.65;;;;;;;27.90;48.00;100515.84;4873327;29;20049;-81
2023/07/16 08:58:24;;;;;;;3.85;2.55;;;;;;;28.12;46.92;100494.78;4870354;29;20053;-81
2023/07/16 09:00:51;;;;;;;3.55;2.58;;;;;;;28.27;47.47;100490.56;4860285;29;20037;-81
2023/07/16 09:03:18;;;;;;;2.95;2.60;;;;;;;28.53;46.17;100493.50;4855572;29;20049;-82
2023/07/16 09:05:45;;;;;;;3.75;2.40;;;;;;;28.41;45.04;100505.53;4863587;29;20057;-83
2023/07/16 09:08:13;;;;;;;3.45;2.50;;;;;;;28.68;45.21;100496.56;4852568;29;20037;-82
2023/07/16 09:10:41;;;;;;;3.50;2.10;;;;;;;29.01;44.33;100508.66;4859543;29;20045;-83
2023/07/16 09:13:08;;;;;;;5.72;2.47;;;;;;;28.64;44.23;100506.88;4849171;29;20045;-81
2023/07/16 09:15:35;;;;;;;5.03;2.88;;;;;;;27.51;45.55;100519.59;4847360;29;20040;-83
2023/07/16 09:18:02;;;;;;;4.35;2.78;;;;;;;27.89;47.41;100511.41;4862403;29;20049;-83
2023/07/16 09:20:32;;;;;;;3.15;2.80;;;;;;;28.15;45.96;100517.06;4826199;29;20045;-83
2023/07/16 09:22:59;;;;;;;3.67;2.78;;;;;;;28.54;44.70;100514.22;4858610;29;20048;-82
2023/07/16 09:25:30;;;;;;;3.88;2.45;;;;;;;28.73;44.77;100514.09;4829146;29;20076;-83
2023/07/16 09:28:03;;;;;;;4.97;2.58;;;;;;;28.92;43.87;100509.59;4855229;29;20565;-82
2023/07/16 09:30:31;;;;;;;;;;;;;;;28.86;42.75;100511.91;4842951;29;20052;-82
2023/07/16 09:32:58;;;;;;;3.45;2.72;;;;;;;28.81;44.22;100513.34;4849144;29;19963;-83
2023/07/16 09:35:25;;;;;;;3.03;2.80;;;;;;;28.99;43.96;100513.41;4846419;29;20513;-82
2023/07/16 09:37:52;;;;;;;3.15;2.47;;;;;;;28.83;43.55;100514.91;4876060;29;20075;-81
2023/07/16 09:40:19;;;;;;;4.22;2.72;;;;;;;28.77;43.50;100522.84;4853974;29;20065;-81
2023/07/16 09:42:46;;;;;;;3.30;3.00;;;;;;;28.89;43.83;100524.31;4836385;29;20618;-84
2023/07/16 09:45:22;;;;;;;3.65;2.63;;;;;;;28.50;41.62;100516.41;4858915;29;20041;-81
2023/07/16 09:47:49;;;;;;;4.53;2.53;;;;;;;28.50;43.83;100519.13;4839567;29;20049;-80
2023/07/16 09:50:16;;;;;;;3.40;2.83;;;;;;;28.45;44.32;100521.41;4881656;29;20093;-82
2023/07/16 09:52:45;;;;;;;2.88;2.33;;;;;;;28.65;44.05;100524.03;4891039;29;20072;-82
2023/07/16 09:55:13;;;;;;;5.20;3.03;;;;;;;28.50;44.10;100521.84;4869002;29;20045;-80
2023/07/16 09:57:42;;;;;;;3.45;2.60;;;;;;;28.39;43.92;100530.16;4863536;29;20394;-81
2023/07/16 10:00:13;;;;;;;3.42;2.28;;;;;;;28.32;43.80;100526.31;4861183;29;20702;-81
2023/07/16 10:02:41;;;;;;;3.08;2.63;;;;;;;28.36;43.01;100527.75;4861884;29;20045;-81
2023/07/16 10:05:37;;;;;;;3.47;2.53;;;;;;;28.21;44.58;100531.91;4862055;29;20197;-80
2023/07/16 10:08:05;;;;;;;3.88;2.70;;;;;;;28.30;43.49;100531.06;4851692;29;20077;-81
2023/07/16 10:10:39;;;;;;;3.22;2.50;;;;;;;28.55;41.90;100532.22;4864509;29;20048;-83
2023/07/16 10:13:10;;;;;;;4.63;2.85;;;;;;;29.02;42.46;100534.88;4879376;29;20147;-82
2023/07/16 10:15:38;;;;;;;2.95;2.65;;;;;;;29.22;41.61;100532.84;4871655;29;20041;-81
2023/07/16 10:18:06;;;;;;;3.42;2.50;;;;;;;29.51;40.94;100521.75;4844425;29;20073;-82
2023/07/16 10:20:42;;;;;;;3.38;2.50;;;;;;;29.73;41.57;100525.84;4839584;29;20052;-79
2023/07/16 10:23:13;;;;;;;4.28;2.72;;;;;;;29.94;39.76;100518.19;4868805;29;20088;-82
2023/07/16 10:26:05;;;;;;;2.90;2.40;;;;;;;30.12;39.93;100529.91;4871698;29;20045;-84
2023/07/16 10:28:33;;;;;;;2.53;2.15;;;;;;;29.96;38.77;100525.19;4862847;29;20548;-82
2023/07/16 10:31:00;;;;;;;2.75;2.20;;;;;;;29.94;38.88;100529.94;4859490;29;20061;-83
2023/07/16 10:33:27;;;;;;;4.07;2.70;;;;;;;29.44;39.59;100529.69;4857489;29;20046;-80
2023/07/16 10:35:58;;;;;;;3.47;2.40;;;;;;;29.29;39.73;100532.09;4873715;29;20037;-81
2023/07/16 10:38:25;;;;;;;2.40;2.20;;;;;;;28.91;40.19;100538.63;4860475;29;20053;-81
2023/07/16 10:40:52;;;;;;;3.08;2.22;;;;;;;28.44;40.69;100538.72;4846578;29;20049;-81
2023/07/16 10:43:18;;;;;;;2.72;2.30;;;;;;;28.27;40.83;100529.47;4849270;29;20079;-81
2023/07/16 10:45:47;;;;;;;3.50;2.13;;;;;;;28.24;41.17;100542.47;4877972;29;20053;-81
2023/07/16 10:48:15;;;;;;;3.65;2.50;;;;;;;27.88;40.50;100531.44;4847753;29;20034;-81
2023/07/16 10:50:42;;;;;;;3.08;2.40;;;;;;;28.20;40.74;100535.63;4858015;29;20049;-82
2023/07/16 10:53:08;;;;;;;3.88;2.53;;;;;;;28.54;39.05;100539.53;4862668;29;20540;-82
2023/07/16 10:55:37;;;;;;;3.58;2.28;;;;;;;29.07;38.68;100541.53;4852324;29;20048;-81
2023/07/16 10:58:06;;;;;;;12.18;11.30;;;;;;;29.05;38.37;100532.69;4846506;29;20312;-81
2023/07/16 11:00:37;;;;;;;4.95;2.70;;;;;;;29.46;38.23;100524.94;4854682;29;20041;-80
2023/07/16 11:03:04;;;;;;;4.80;3.30;;;;;;;29.67;35.52;100539.09;4847623;29;20053;-83
2023/07/16 12:11:01;;;;;;;2.75;2.33;;;;;;;30.03;34.16;100552.66;4900701;23;20064;-84
2023/07/16 12:13:29;;;;;;;3.13;2.38;;;;;;;29.69;34.16;100555.28;4877368;29;20041;-83
2023/07/16 12:15:56;;;;;;;2.38;2.17;;;;;;;29.42;33.65;100556.19;4886556;29;20045;-81
2023/07/16 12:18:23;;;;;;;4.10;2.33;;;;;;;28.89;34.42;100559.66;4878599;29;20037;-81
2023/07/16 12:20:51;;;;;;;2.60;2.35;;;;;;;29.21;34.81;100563.81;4862467;29;20083;-81
2023/07/16 12:23:20;;;;;;;3.85;2.95;;;;;;;29.43;35.64;100564.22;4861995;29;20044;-83
2023/07/16 12:25:48;;;;;;;2.78;2.45;;;;;;;29.12;35.41;100551.97;4886690;29;20583;-81
2023/07/16 12:28:16;;;;;;;4.20;2.55;;;;;;;28.99;36.53;100565.94;4879903;29;20048;-81
2023/07/16 12:30:43;;;;;;;3.15;2.28;;;;;;;28.96;36.11;100560.81;4850970;29;20044;-81
2023/07/16 12:33:10;;;;;;;2.97;2.63;;;;;;;28.88;37.31;100572.41;4863813;29;20053;-82